CFE99B EGPH-EGLC
Flight info
| Callsign | CFE99B |
|---|---|
| Flight time | 1h 10m |
| Altitude | 35000 |
| Route | GOSAM1D GOSAM P600 FENIK L612 NAVSO DCT AKOMU DCT VAMEB UL612 LISTO LISTO1C |
| Aircraft | E190/M-SDE2E3GHIJ1LORVWXY/SB1 |
Departure
| Time | 2026-04-23 14:58 |
|---|---|
| Airport | Edinburgh Airport (EGPH) |
Arrival
| Time | 2026-04-23 16:09 |
|---|---|
| Airport | London City Airport (EGLC) |
| Time | Latitude | Longitude | Altitude | Speed | Heading |
|---|---|---|---|---|---|
| 2026-04-23 14:44 | 55.94902 | -3.36491 | 115 ft | 0 kts | 148° |
| 2026-04-23 14:52 | 55.94903 | -3.36493 | 115 ft | 2 kts | 148° |
| 2026-04-23 14:52 | 55.94917 | -3.36508 | 111 ft | 4 kts | 148° |
| 2026-04-23 14:52 | 55.94939 | -3.36532 | 114 ft | 4 kts | 158° |
| 2026-04-23 14:52 | 55.94962 | -3.36537 | 113 ft | 4 kts | 217° |
| 2026-04-23 14:53 | 55.94977 | -3.36507 | 111 ft | 1 kts | 238° |
| 2026-04-23 14:53 | 55.94977 | -3.36506 | 111 ft | 0 kts | 238° |
| 2026-04-23 14:54 | 55.94976 | -3.36509 | 115 ft | 1 kts | 238° |
| 2026-04-23 14:55 | 55.94962 | -3.36549 | 113 ft | 7 kts | 239° |
| 2026-04-23 14:55 | 55.94931 | -3.36643 | 115 ft | 10 kts | 239° |
| 2026-04-23 14:55 | 55.94897 | -3.36758 | 113 ft | 11 kts | 256° |
| 2026-04-23 14:55 | 55.94925 | -3.36877 | 115 ft | 11 kts | 268° |
| 2026-04-23 14:56 | 55.94885 | -3.37017 | 114 ft | 15 kts | 238° |
| 2026-04-23 14:56 | 55.94823 | -3.37202 | 114 ft | 18 kts | 239° |
| 2026-04-23 14:56 | 55.94755 | -3.37403 | 114 ft | 20 kts | 239° |
| 2026-04-23 14:56 | 55.94682 | -3.37617 | 114 ft | 21 kts | 239° |
| 2026-04-23 14:57 | 55.94606 | -3.37839 | 115 ft | 19 kts | 238° |
| 2026-04-23 14:57 | 55.94639 | -3.37997 | 122 ft | 17 kts | 327° |
| 2026-04-23 14:57 | 55.94727 | -3.38041 | 113 ft | 12 kts | 40° |
| 2026-04-23 14:57 | 55.94816 | -3.37792 | 113 ft | 50 kts | 58° |
| 2026-04-23 14:58 | 55.95120 | -3.36895 | 113 ft | 118 kts | 59° |
| 2026-04-23 14:58 | 55.95641 | -3.35383 | 257 ft | 162 kts | 57° |
| 2026-04-23 14:58 | 55.96325 | -3.33613 | 864 ft | 179 kts | 50° |
| 2026-04-23 14:58 | 55.97230 | -3.31972 | 1425 ft | 195 kts | 41° |
| 2026-04-23 14:59 | 55.98327 | -3.30402 | 2027 ft | 211 kts | 37° |
| 2026-04-23 14:59 | 55.99771 | -3.29353 | 2445 ft | 239 kts | 2° |
| 2026-04-23 14:59 | 56.01367 | -3.30029 | 3291 ft | 244 kts | 329° |
| 2026-04-23 14:59 | 56.02582 | -3.32212 | 3882 ft | 256 kts | 295° |
| 2026-04-23 15:00 | 56.02961 | -3.35298 | 4653 ft | 258 kts | 263° |
| 2026-04-23 15:00 | 56.02673 | -3.38478 | 5598 ft | 261 kts | 258° |
| 2026-04-23 15:00 | 56.02332 | -3.41703 | 6391 ft | 271 kts | 257° |
| 2026-04-23 15:00 | 56.01911 | -3.44981 | 6997 ft | 270 kts | 255° |
| 2026-04-23 15:01 | 56.01469 | -3.48261 | 7830 ft | 272 kts | 255° |
| 2026-04-23 15:01 | 56.01012 | -3.51559 | 8643 ft | 274 kts | 254° |
| 2026-04-23 15:01 | 56.00543 | -3.54872 | 9438 ft | 277 kts | 254° |
| 2026-04-23 15:01 | 56.00061 | -3.58216 | 10259 ft | 279 kts | 253° |
| 2026-04-23 15:02 | 55.99561 | -3.61615 | 10794 ft | 292 kts | 253° |
| 2026-04-23 15:02 | 55.99025 | -3.65183 | 11334 ft | 303 kts | 253° |
| 2026-04-23 15:02 | 55.98479 | -3.68823 | 11971 ft | 311 kts | 253° |
| 2026-04-23 15:02 | 55.97910 | -3.72582 | 12740 ft | 315 kts | 253° |
| 2026-04-23 15:03 | 55.97332 | -3.76393 | 13529 ft | 321 kts | 253° |
| 2026-04-23 15:03 | 55.96741 | -3.80250 | 14374 ft | 326 kts | 254° |
| 2026-04-23 15:03 | 55.96130 | -3.84189 | 15122 ft | 331 kts | 254° |
| 2026-04-23 15:03 | 55.95508 | -3.88184 | 15908 ft | 337 kts | 254° |
| 2026-04-23 15:04 | 55.94871 | -3.92244 | 16664 ft | 342 kts | 253° |
| 2026-04-23 15:04 | 55.94206 | -3.96352 | 17383 ft | 347 kts | 250° |
| 2026-04-23 15:04 | 55.93042 | -4.00106 | 18104 ft | 349 kts | 228° |
| 2026-04-23 15:04 | 55.91226 | -4.02986 | 18852 ft | 351 kts | 218° |
| 2026-04-23 15:05 | 55.89295 | -4.05697 | 19558 ft | 354 kts | 217° |
| 2026-04-23 15:05 | 55.87349 | -4.08427 | 20248 ft | 357 kts | 217° |
| 2026-04-23 15:05 | 55.85380 | -4.11165 | 20922 ft | 360 kts | 217° |
| 2026-04-23 15:05 | 55.83393 | -4.13905 | 21577 ft | 362 kts | 217° |
| 2026-04-23 15:06 | 55.81384 | -4.16650 | 22201 ft | 366 kts | 217° |
| 2026-04-23 15:06 | 55.79351 | -4.19408 | 22760 ft | 369 kts | 217° |
| 2026-04-23 15:06 | 55.77295 | -4.22052 | 23368 ft | 371 kts | 214° |
| 2026-04-23 15:06 | 55.75168 | -4.24663 | 23959 ft | 373 kts | 212° |
| 2026-04-23 15:07 | 55.72792 | -4.26520 | 24405 ft | 376 kts | 193° |
| 2026-04-23 15:07 | 55.70176 | -4.26839 | 24807 ft | 382 kts | 173° |
| 2026-04-23 15:07 | 55.67621 | -4.25600 | 25337 ft | 383 kts | 158° |
| 2026-04-23 15:07 | 55.65183 | -4.23627 | 25776 ft | 388 kts | 152° |
| 2026-04-23 15:08 | 55.62846 | -4.21220 | 26270 ft | 390 kts | 150° |
| 2026-04-23 15:08 | 55.60484 | -4.18804 | 26677 ft | 395 kts | 150° |
| 2026-04-23 15:08 | 55.58096 | -4.16376 | 27110 ft | 398 kts | 151° |
| 2026-04-23 15:09 | 55.53260 | -4.11498 | 27994 ft | 403 kts | 151° |
| 2026-04-23 15:09 | 55.50815 | -4.09046 | 28393 ft | 406 kts | 152° |
| 2026-04-23 15:09 | 55.48348 | -4.06582 | 28765 ft | 409 kts | 152° |
| 2026-04-23 15:09 | 55.45847 | -4.04149 | 29160 ft | 412 kts | 152° |
| 2026-04-23 15:10 | 55.44180 | -4.02527 | 29386 ft | 415 kts | 152° |
| 2026-04-23 15:10 | 55.40787 | -3.99233 | 29866 ft | 419 kts | 152° |
| 2026-04-23 15:10 | 55.38224 | -3.96746 | 30231 ft | 421 kts | 152° |
| 2026-04-23 15:10 | 55.35650 | -3.94254 | 30568 ft | 425 kts | 152° |
| 2026-04-23 15:11 | 55.33046 | -3.91737 | 30844 ft | 427 kts | 152° |
| 2026-04-23 15:11 | 55.30433 | -3.89215 | 31131 ft | 429 kts | 152° |
| 2026-04-23 15:11 | 55.27810 | -3.86685 | 31426 ft | 431 kts | 152° |
| 2026-04-23 15:11 | 55.25169 | -3.84143 | 31616 ft | 436 kts | 151° |
| 2026-04-23 15:12 | 55.22500 | -3.81575 | 31807 ft | 440 kts | 151° |
| 2026-04-23 15:12 | 55.19820 | -3.79130 | 32088 ft | 441 kts | 154° |
| 2026-04-23 15:12 | 55.17057 | -3.76776 | 32319 ft | 443 kts | 154° |
| 2026-04-23 15:12 | 55.14279 | -3.74392 | 32552 ft | 445 kts | 154° |
| 2026-04-23 15:13 | 55.11500 | -3.72007 | 32804 ft | 446 kts | 154° |
| 2026-04-23 15:13 | 55.08715 | -3.69615 | 33093 ft | 446 kts | 154° |
| 2026-04-23 15:13 | 55.05933 | -3.67223 | 33384 ft | 446 kts | 154° |
| 2026-04-23 15:13 | 55.03148 | -3.64835 | 33677 ft | 445 kts | 154° |
| 2026-04-23 15:14 | 55.00369 | -3.62453 | 33948 ft | 445 kts | 154° |
| 2026-04-23 15:14 | 54.97592 | -3.60075 | 34218 ft | 445 kts | 154° |
| 2026-04-23 15:14 | 54.94808 | -3.57694 | 34464 ft | 446 kts | 154° |
| 2026-04-23 15:14 | 54.92019 | -3.55312 | 34636 ft | 447 kts | 154° |
| 2026-04-23 15:15 | 54.89228 | -3.52931 | 34873 ft | 446 kts | 154° |
| 2026-04-23 15:15 | 54.86442 | -3.50558 | 35130 ft | 445 kts | 154° |
| 2026-04-23 15:15 | 54.83662 | -3.48193 | 35393 ft | 443 kts | 154° |
| 2026-04-23 15:15 | 54.80893 | -3.45841 | 35558 ft | 446 kts | 154° |
| 2026-04-23 15:16 | 54.78090 | -3.43465 | 35552 ft | 451 kts | 154° |
| 2026-04-23 15:16 | 54.72381 | -3.38636 | 35584 ft | 461 kts | 154° |
| 2026-04-23 15:17 | 54.66612 | -3.33773 | 35448 ft | 466 kts | 154° |
| 2026-04-23 15:17 | 54.60790 | -3.28879 | 35450 ft | 466 kts | 154° |
| 2026-04-23 15:18 | 54.54952 | -3.23990 | 35445 ft | 466 kts | 154° |
| 2026-04-23 15:18 | 54.49104 | -3.19106 | 35444 ft | 465 kts | 153° |
| 2026-04-23 15:19 | 54.43283 | -3.14260 | 35434 ft | 465 kts | 153° |
| 2026-04-23 15:19 | 54.37489 | -3.09453 | 35436 ft | 465 kts | 154° |
| 2026-04-23 15:20 | 54.32609 | -3.05414 | 35442 ft | 465 kts | 154° |
| 2026-04-23 15:20 | 54.25826 | -2.99817 | 35438 ft | 465 kts | 154° |
| 2026-04-23 15:21 | 54.19986 | -2.95011 | 35439 ft | 466 kts | 154° |
| 2026-04-23 15:21 | 54.14084 | -2.90395 | 35447 ft | 467 kts | 158° |
| 2026-04-23 15:22 | 54.08061 | -2.86227 | 35430 ft | 467 kts | 157° |
| 2026-04-23 15:22 | 54.02042 | -2.82027 | 35432 ft | 467 kts | 157° |
| 2026-04-23 15:23 | 53.96045 | -2.77781 | 35432 ft | 467 kts | 156° |
| 2026-04-23 15:23 | 53.90037 | -2.73488 | 35426 ft | 469 kts | 156° |
| 2026-04-23 15:24 | 53.84073 | -2.69191 | 35438 ft | 469 kts | 156° |
| 2026-04-23 15:24 | 53.78066 | -2.64873 | 35436 ft | 469 kts | 156° |
| 2026-04-23 15:25 | 53.72059 | -2.60571 | 35439 ft | 469 kts | 156° |
| 2026-04-23 15:25 | 53.66048 | -2.56279 | 35425 ft | 470 kts | 156° |
| 2026-04-23 15:26 | 53.60031 | -2.51999 | 35430 ft | 469 kts | 156° |
| 2026-04-23 15:26 | 53.54012 | -2.47730 | 35442 ft | 469 kts | 156° |
| 2026-04-23 15:27 | 53.47995 | -2.43474 | 35442 ft | 469 kts | 156° |
| 2026-04-23 15:27 | 53.41972 | -2.39227 | 35457 ft | 469 kts | 156° |
| 2026-04-23 15:28 | 53.35951 | -2.34996 | 35453 ft | 469 kts | 157° |
| 2026-04-23 15:28 | 53.29923 | -2.30771 | 35454 ft | 469 kts | 157° |
| 2026-04-23 15:29 | 53.23900 | -2.26563 | 35455 ft | 469 kts | 157° |
| 2026-04-23 15:29 | 53.17859 | -2.22358 | 35449 ft | 471 kts | 157° |
| 2026-04-23 15:30 | 53.12068 | -2.17382 | 35472 ft | 469 kts | 143° |
| 2026-04-23 15:30 | 53.06816 | -2.10905 | 35444 ft | 469 kts | 142° |
| 2026-04-23 15:31 | 53.01561 | -2.04471 | 35432 ft | 470 kts | 143° |
| 2026-04-23 15:31 | 52.96314 | -1.98080 | 35435 ft | 466 kts | 142° |
| 2026-04-23 15:32 | 52.91071 | -1.91722 | 35438 ft | 467 kts | 142° |
| 2026-04-23 15:32 | 52.85852 | -1.85416 | 35439 ft | 467 kts | 142° |
| 2026-04-23 15:33 | 52.80600 | -1.79090 | 35447 ft | 467 kts | 143° |
| 2026-04-23 15:33 | 52.75346 | -1.72792 | 35445 ft | 466 kts | 144° |
| 2026-04-23 15:34 | 52.69656 | -1.67601 | 35362 ft | 469 kts | 152° |
| 2026-04-23 15:34 | 52.63853 | -1.62634 | 35343 ft | 468 kts | 152° |
| 2026-04-23 15:35 | 52.58087 | -1.57706 | 35336 ft | 467 kts | 152° |
| 2026-04-23 15:35 | 52.52313 | -1.52777 | 35342 ft | 467 kts | 152° |
| 2026-04-23 15:36 | 52.46555 | -1.47872 | 35436 ft | 462 kts | 152° |
| 2026-04-23 15:36 | 52.43751 | -1.45489 | 35417 ft | 448 kts | 152° |
| 2026-04-23 15:36 | 52.40991 | -1.43145 | 35407 ft | 446 kts | 152° |
| 2026-04-23 15:37 | 52.35464 | -1.38461 | 35474 ft | 448 kts | 152° |
| 2026-04-23 15:37 | 52.30865 | -1.34489 | 35482 ft | 451 kts | 147° |
| 2026-04-23 15:37 | 52.28455 | -1.31253 | 35500 ft | 449 kts | 132° |
| 2026-04-23 15:38 | 52.25774 | -1.26092 | 35499 ft | 451 kts | 129° |
| 2026-04-23 15:38 | 52.22389 | -1.19474 | 35481 ft | 454 kts | 129° |
| 2026-04-23 15:39 | 52.18327 | -1.11567 | 35466 ft | 455 kts | 129° |
| 2026-04-23 15:39 | 52.14338 | -1.03636 | 35447 ft | 455 kts | 121° |
| 2026-04-23 15:39 | 52.13093 | -0.98936 | 35373 ft | 454 kts | 103° |
| 2026-04-23 15:40 | 52.12829 | -0.93892 | 34980 ft | 443 kts | 90° |
| 2026-04-23 15:40 | 52.12911 | -0.88972 | 34579 ft | 431 kts | 91° |
| 2026-04-23 15:40 | 52.12945 | -0.84111 | 33913 ft | 426 kts | 91° |
| 2026-04-23 15:40 | 52.12980 | -0.79344 | 33363 ft | 419 kts | 91° |
| 2026-04-23 15:41 | 52.13060 | -0.74637 | 32824 ft | 411 kts | 91° |
| 2026-04-23 15:41 | 52.13119 | -0.70017 | 32251 ft | 405 kts | 91° |
| 2026-04-23 15:41 | 52.13174 | -0.65467 | 31748 ft | 398 kts | 92° |
| 2026-04-23 15:41 | 52.13218 | -0.60981 | 31192 ft | 393 kts | 92° |
| 2026-04-23 15:42 | 52.13257 | -0.56568 | 30699 ft | 388 kts | 92° |
| 2026-04-23 15:42 | 52.13288 | -0.52188 | 30131 ft | 386 kts | 93° |
| 2026-04-23 15:42 | 52.13286 | -0.47830 | 29675 ft | 387 kts | 93° |
| 2026-04-23 15:42 | 52.13281 | -0.43414 | 29131 ft | 392 kts | 93° |
| 2026-04-23 15:43 | 52.13278 | -0.38947 | 28617 ft | 397 kts | 92° |
| 2026-04-23 15:43 | 52.13278 | -0.34440 | 28076 ft | 399 kts | 92° |
| 2026-04-23 15:43 | 52.13278 | -0.29927 | 27548 ft | 398 kts | 92° |
| 2026-04-23 15:43 | 52.13278 | -0.25424 | 27022 ft | 396 kts | 92° |
| 2026-04-23 15:44 | 52.13277 | -0.21022 | 26506 ft | 392 kts | 92° |
| 2026-04-23 15:44 | 52.13275 | -0.16605 | 25986 ft | 389 kts | 92° |
| 2026-04-23 15:44 | 52.13272 | -0.12228 | 25474 ft | 385 kts | 92° |
| 2026-04-23 15:44 | 52.13268 | -0.07890 | 24958 ft | 382 kts | 91° |
| 2026-04-23 15:45 | 52.13264 | -0.03582 | 24456 ft | 378 kts | 91° |
| 2026-04-23 15:45 | 52.13259 | 0.00682 | 23946 ft | 375 kts | 92° |
| 2026-04-23 15:45 | 52.13252 | 0.04915 | 23450 ft | 372 kts | 92° |
| 2026-04-23 15:45 | 52.13245 | 0.09104 | 22968 ft | 370 kts | 92° |
| 2026-04-23 15:46 | 52.13236 | 0.13271 | 22620 ft | 364 kts | 92° |
| 2026-04-23 15:46 | 52.13017 | 0.17341 | 22535 ft | 359 kts | 99° |
| 2026-04-23 15:46 | 52.12679 | 0.21392 | 22471 ft | 362 kts | 99° |
| 2026-04-23 15:46 | 52.12344 | 0.25460 | 22411 ft | 363 kts | 99° |
| 2026-04-23 15:47 | 52.12007 | 0.29534 | 22415 ft | 364 kts | 99° |
| 2026-04-23 15:47 | 52.11673 | 0.33568 | 22429 ft | 364 kts | 99° |
| 2026-04-23 15:47 | 52.11335 | 0.37654 | 22419 ft | 365 kts | 99° |
| 2026-04-23 15:47 | 52.10993 | 0.41748 | 22432 ft | 365 kts | 99° |
| 2026-04-23 15:48 | 52.10652 | 0.45841 | 22408 ft | 366 kts | 99° |
| 2026-04-23 15:48 | 52.10303 | 0.49965 | 22077 ft | 367 kts | 100° |
| 2026-04-23 15:48 | 52.09862 | 0.54030 | 21896 ft | 365 kts | 103° |
| 2026-04-23 15:48 | 52.09401 | 0.58098 | 21400 ft | 366 kts | 102° |
| 2026-04-23 15:49 | 52.08947 | 0.62145 | 20945 ft | 362 kts | 102° |
| 2026-04-23 15:49 | 52.08500 | 0.66149 | 20486 ft | 358 kts | 101° |
| 2026-04-23 15:49 | 52.08057 | 0.70107 | 20054 ft | 354 kts | 101° |
| 2026-04-23 15:49 | 52.07619 | 0.74024 | 19626 ft | 350 kts | 101° |
| 2026-04-23 15:50 | 52.07187 | 0.77877 | 19200 ft | 343 kts | 101° |
| 2026-04-23 15:50 | 52.06764 | 0.81649 | 18786 ft | 336 kts | 101° |
| 2026-04-23 15:50 | 52.06076 | 0.85224 | 18237 ft | 331 kts | 115° |
| 2026-04-23 15:50 | 52.05011 | 0.88476 | 17877 ft | 322 kts | 117° |
| 2026-04-23 15:51 | 52.03955 | 0.91655 | 17311 ft | 319 kts | 118° |
| 2026-04-23 15:51 | 52.02510 | 0.94424 | 16696 ft | 323 kts | 141° |
| 2026-04-23 15:51 | 52.00507 | 0.95975 | 16279 ft | 323 kts | 166° |
| 2026-04-23 15:51 | 51.98273 | 0.95869 | 15860 ft | 325 kts | 193° |
| 2026-04-23 15:52 | 51.96215 | 0.94359 | 15460 ft | 325 kts | 207° |
| 2026-04-23 15:52 | 51.94250 | 0.92554 | 14986 ft | 324 kts | 207° |
| 2026-04-23 15:52 | 51.92311 | 0.90793 | 14555 ft | 323 kts | 207° |
| 2026-04-23 15:52 | 51.90349 | 0.89016 | 14115 ft | 322 kts | 207° |
| 2026-04-23 15:53 | 51.88396 | 0.87255 | 13688 ft | 320 kts | 206° |
| 2026-04-23 15:53 | 51.86454 | 0.85525 | 13271 ft | 317 kts | 206° |
| 2026-04-23 15:53 | 51.84522 | 0.83811 | 12850 ft | 316 kts | 206° |
| 2026-04-23 15:53 | 51.82598 | 0.82120 | 12432 ft | 314 kts | 206° |
| 2026-04-23 15:54 | 51.80679 | 0.80450 | 12020 ft | 312 kts | 206° |
| 2026-04-23 15:54 | 51.78765 | 0.78794 | 11598 ft | 311 kts | 205° |
| 2026-04-23 15:54 | 51.76858 | 0.77163 | 11178 ft | 309 kts | 205° |
| 2026-04-23 15:54 | 51.74962 | 0.75557 | 10764 ft | 307 kts | 205° |
| 2026-04-23 15:55 | 51.73076 | 0.73971 | 10361 ft | 305 kts | 205° |
| 2026-04-23 15:55 | 51.71196 | 0.72410 | 9934 ft | 303 kts | 204° |
| 2026-04-23 15:55 | 51.69332 | 0.70885 | 9558 ft | 299 kts | 204° |
| 2026-04-23 15:55 | 51.67481 | 0.69383 | 9146 ft | 297 kts | 204° |
| 2026-04-23 15:56 | 51.65646 | 0.67906 | 8759 ft | 294 kts | 204° |
| 2026-04-23 15:56 | 51.63824 | 0.66451 | 8372 ft | 291 kts | 204° |
| 2026-04-23 15:56 | 51.62011 | 0.65014 | 7988 ft | 289 kts | 203° |
| 2026-04-23 15:56 | 51.60207 | 0.63596 | 7597 ft | 287 kts | 203° |
| 2026-04-23 15:57 | 51.58411 | 0.62195 | 7223 ft | 285 kts | 203° |
| 2026-04-23 15:57 | 51.56628 | 0.60815 | 6806 ft | 285 kts | 203° |
| 2026-04-23 15:57 | 51.54792 | 0.59402 | 5988 ft | 298 kts | 202° |
| 2026-04-23 15:57 | 51.52954 | 0.57936 | 5664 ft | 293 kts | 209° |
| 2026-04-23 15:58 | 51.51536 | 0.55608 | 5315 ft | 295 kts | 238° |
| 2026-04-23 15:58 | 51.50711 | 0.52635 | 5068 ft | 288 kts | 247° |
| 2026-04-23 15:58 | 51.49974 | 0.49770 | 4989 ft | 274 kts | 245° |
| 2026-04-23 15:58 | 51.49235 | 0.47044 | 4961 ft | 259 kts | 244° |
| 2026-04-23 15:59 | 51.48527 | 0.44461 | 4922 ft | 247 kts | 244° |
| 2026-04-23 15:59 | 51.47846 | 0.41999 | 4810 ft | 238 kts | 243° |
| 2026-04-23 15:59 | 51.47153 | 0.39528 | 4460 ft | 244 kts | 243° |
| 2026-04-23 15:59 | 51.46446 | 0.37060 | 4186 ft | 243 kts | 243° |
| 2026-04-23 16:00 | 51.45739 | 0.34607 | 3923 ft | 241 kts | 243° |
| 2026-04-23 16:00 | 51.45095 | 0.32134 | 3665 ft | 240 kts | 254° |
| 2026-04-23 16:00 | 51.44921 | 0.29477 | 3405 ft | 241 kts | 271° |
| 2026-04-23 16:00 | 51.44973 | 0.26806 | 3151 ft | 239 kts | 271° |
| 2026-04-23 16:01 | 51.44987 | 0.24150 | 2905 ft | 238 kts | 270° |
| 2026-04-23 16:01 | 51.44984 | 0.21493 | 2662 ft | 237 kts | 270° |
| 2026-04-23 16:01 | 51.44952 | 0.18887 | 2442 ft | 230 kts | 266° |
| 2026-04-23 16:01 | 51.44768 | 0.16410 | 2196 ft | 224 kts | 262° |
| 2026-04-23 16:02 | 51.44561 | 0.13965 | 1972 ft | 217 kts | 262° |
| 2026-04-23 16:02 | 51.44376 | 0.11659 | 2017 ft | 206 kts | 264° |
| 2026-04-23 16:02 | 51.44201 | 0.09374 | 2024 ft | 209 kts | 264° |
| 2026-04-23 16:02 | 51.44030 | 0.07059 | 2035 ft | 209 kts | 264° |
| 2026-04-23 16:03 | 51.43854 | 0.04734 | 2072 ft | 210 kts | 264° |
| 2026-04-23 16:03 | 51.43800 | 0.02401 | 2062 ft | 210 kts | 276° |
| 2026-04-23 16:03 | 51.43931 | 0.00092 | 2027 ft | 207 kts | 276° |
| 2026-04-23 16:03 | 51.44034 | -0.02213 | 1980 ft | 206 kts | 275° |
| 2026-04-23 16:04 | 51.44129 | -0.04508 | 1980 ft | 209 kts | 274° |
| 2026-04-23 16:04 | 51.44215 | -0.06810 | 1995 ft | 204 kts | 274° |
| 2026-04-23 16:04 | 51.44314 | -0.09029 | 1981 ft | 201 kts | 282° |
| 2026-04-23 16:04 | 51.44990 | -0.10857 | 1912 ft | 186 kts | 332° |
| 2026-04-23 16:05 | 51.45758 | -0.11380 | 1958 ft | 172 kts | 355° |
| 2026-04-23 16:05 | 51.47301 | -0.11546 | 1989 ft | 169 kts | 3° |
| 2026-04-23 16:05 | 51.48458 | -0.11611 | 1981 ft | 163 kts | 3° |
| 2026-04-23 16:05 | 51.49584 | -0.11550 | 1948 ft | 157 kts | 24° |
| 2026-04-23 16:06 | 51.50318 | -0.10498 | 2007 ft | 143 kts | 69° |
| 2026-04-23 16:06 | 51.50683 | -0.09074 | 2032 ft | 135 kts | 65° |
| 2026-04-23 16:06 | 51.50948 | -0.07719 | 2088 ft | 119 kts | 89° |
| 2026-04-23 16:06 | 51.50868 | -0.06433 | 2193 ft | 110 kts | 93° |
| 2026-04-23 16:07 | 51.50836 | -0.05224 | 1926 ft | 111 kts | 90° |
| 2026-04-23 16:07 | 51.50798 | -0.03978 | 1776 ft | 113 kts | 89° |
| 2026-04-23 16:07 | 51.50779 | -0.02676 | 1616 ft | 120 kts | 87° |
| 2026-04-23 16:07 | 51.50748 | -0.01334 | 1478 ft | 119 kts | 93° |
| 2026-04-23 16:08 | 51.50678 | -0.00008 | 1181 ft | 120 kts | 92° |
| 2026-04-23 16:08 | 51.50653 | 0.01338 | 838 ft | 122 kts | 90° |
| 2026-04-23 16:08 | 51.50609 | 0.02701 | 474 ft | 121 kts | 93° |
| 2026-04-23 16:08 | 51.50572 | 0.03993 | 169 ft | 111 kts | 95° |
| 2026-04-23 16:09 | 51.50534 | 0.05146 | 24 ft | 89 kts | 92° |
| 2026-04-23 16:09 | 51.50512 | 0.05847 | 24 ft | 37 kts | 93° |
| 2026-04-23 16:09 | 51.50504 | 0.06025 | 26 ft | 8 kts | 111° |
| 2026-04-23 16:09 | 51.50460 | 0.06025 | 26 ft | 8 kts | 214° |
| 2026-04-23 16:10 | 51.50427 | 0.05946 | 24 ft | 11 kts | 259° |
| 2026-04-23 16:10 | 51.50430 | 0.05802 | 24 ft | 15 kts | 272° |
| 2026-04-23 16:10 | 51.50436 | 0.05618 | 24 ft | 17 kts | 273° |
| 2026-04-23 16:10 | 51.50442 | 0.05413 | 24 ft | 19 kts | 273° |
| 2026-04-23 16:11 | 51.50446 | 0.05222 | 24 ft | 5 kts | 255° |
| 2026-04-23 16:11 | 51.50411 | 0.05210 | 24 ft | 6 kts | 181° |
| 2026-04-23 16:11 | 51.50401 | 0.05205 | 27 ft | 1 kts | 213° |
| 2026-04-23 16:11 | 51.50404 | 0.05195 | 27 ft | 1 kts | 291° |
| 2026-04-23 16:12 | 51.50408 | 0.05194 | 27 ft | 0 kts | 324° |